createdAt,value
2023-04-01T00:02:19.100Z,1.10
2023-04-01T00:05:22.247Z,0.75
2023-04-01T00:08:25.748Z,1.12
2023-04-01T00:11:29.074Z,0.57
2023-04-01T00:14:31.738Z,0.65
2023-04-01T00:17:35.064Z,1.33
2023-04-01T00:20:38.072Z,0.80
2023-04-01T00:23:41.028Z,0.90
2023-04-01T00:26:45.087Z,0.85
2023-04-01T00:29:48.670Z,0.62
2023-04-01T00:32:54.991Z,0.65
2023-04-01T00:36:17.082Z,0.75
2023-04-01T00:39:21.908Z,1.00
2023-04-01T00:42:25.066Z,0.90
2023-04-01T00:45:39.362Z,0.70
2023-04-01T00:48:49.187Z,0.75
2023-04-01T00:51:56.773Z,0.95
2023-04-01T00:55:02.243Z,0.88
2023-04-01T00:58:08.373Z,0.80
2023-04-01T01:01:11.523Z,0.95
2023-04-01T01:04:33.272Z,0.73
2023-04-01T01:07:54.165Z,0.98
2023-04-01T01:10:57.050Z,0.82
2023-04-01T01:14:13.282Z,0.85
2023-04-01T01:17:28.633Z,0.93
2023-04-01T01:21:08.102Z,0.98
2023-04-01T01:24:28.926Z,0.80
2023-04-01T01:27:34.075Z,0.65
2023-04-01T01:31:01.505Z,1.08
2023-04-01T01:34:57.137Z,0.70
2023-04-01T01:38:11.768Z,1.15
2023-04-01T01:41:19.124Z,0.80
2023-04-01T01:44:24.371Z,0.77
2023-04-01T01:47:30.342Z,0.65
2023-04-01T01:50:34.131Z,0.65
2023-04-01T01:53:37.319Z,0.80
2023-04-01T01:56:42.408Z,0.80
2023-04-01T01:59:48.422Z,0.93
2023-04-01T02:02:54.924Z,0.88
2023-04-01T02:06:01.724Z,0.80
2023-04-01T02:09:11.690Z,0.68
2023-04-01T02:12:17.892Z,0.60
2023-04-01T02:15:22.913Z,0.43
2023-04-01T02:18:26.671Z,0.70
2023-04-01T02:21:32.299Z,0.40
2023-04-01T02:24:38.466Z,0.70
2023-04-01T02:27:44.506Z,0.50
2023-04-01T02:30:49.837Z,0.60
2023-04-01T02:33:54.198Z,0.60
2023-04-01T02:36:58.275Z,0.37
2023-04-01T02:40:03.585Z,0.52
2023-04-01T02:43:06.702Z,0.60
2023-04-01T02:46:09.670Z,0.40
2023-04-01T02:49:12.720Z,0.65
2023-04-01T02:52:15.890Z,0.60
2023-04-01T02:55:18.579Z,1.08
2023-04-01T02:58:21.698Z,0.60
2023-04-01T03:01:24.559Z,0.90
2023-04-01T03:04:27.538Z,0.80
2023-04-01T03:07:30.135Z,0.73
2023-04-01T03:10:33.142Z,0.70
2023-04-01T03:13:36.816Z,0.52
2023-04-01T03:16:39.772Z,0.80
2023-04-01T03:19:42.857Z,0.50
2023-04-01T03:22:46.941Z,0.40
2023-04-01T03:25:49.560Z,0.60
2023-04-01T03:28:52.565Z,0.75
2023-04-01T03:31:55.505Z,0.43
2023-04-01T03:34:58.589Z,0.50
2023-04-01T03:38:01.343Z,0.50
2023-04-01T03:41:04.664Z,0.40
2023-04-01T03:44:07.961Z,0.65
2023-04-01T03:47:11.020Z,0.73
2023-04-01T03:50:13.580Z,0.40
2023-04-01T03:53:16.717Z,0.40
2023-04-01T03:56:19.721Z,0.93
2023-04-01T03:59:22.847Z,0.65
2023-04-01T04:02:26.112Z,0.60
2023-04-01T04:05:29.290Z,0.50
2023-04-01T04:08:31.911Z,0.40
2023-04-01T04:11:35.228Z,0.50
2023-04-01T04:14:38.401Z,0.57
2023-04-01T04:17:41.451Z,0.40
2023-04-01T04:20:51.094Z,1.23
2023-04-01T04:23:54.050Z,0.47
2023-04-01T04:26:56.754Z,0.40
2023-04-01T04:29:59.887Z,0.60
2023-04-01T04:33:02.819Z,1.00
2023-04-01T04:36:06.224Z,0.35
2023-04-01T04:39:08.795Z,0.45
2023-04-01T04:42:13.548Z,0.70
2023-04-01T04:45:16.369Z,0.62
2023-04-01T04:48:21.454Z,0.82
2023-04-01T04:51:24.834Z,0.40
2023-04-01T04:54:28.131Z,0.60
2023-04-01T04:57:31.294Z,0.52
2023-04-01T05:00:34.333Z,0.77
2023-04-01T05:03:37.204Z,0.68
2023-04-01T05:06:40.867Z,0.70
2023-04-01T05:09:43.644Z,0.70
2023-04-01T05:12:46.592Z,1.00
2023-04-01T05:15:50.500Z,1.00
2023-04-01T05:18:53.330Z,0.62
2023-04-01T05:21:55.964Z,0.77
2023-04-01T05:24:58.881Z,0.43
2023-04-01T05:28:01.920Z,0.82
2023-04-01T05:31:06.735Z,0.40
2023-04-01T05:34:09.974Z,0.62
2023-04-01T05:37:13.433Z,0.73
2023-04-01T05:40:16.311Z,1.75
2023-04-01T05:43:19.231Z,0.68
2023-04-01T05:46:22.775Z,0.80
2023-04-01T05:49:28.384Z,1.10
2023-04-01T05:52:31.923Z,0.75
2023-04-01T05:55:36.942Z,0.70
2023-04-01T05:58:40.591Z,0.70
2023-04-01T06:01:44.386Z,0.90
2023-04-01T06:04:47.521Z,0.85
2023-04-01T06:07:58.867Z,1.00
2023-04-01T06:11:41.642Z,0.98
2023-04-01T06:15:21.438Z,0.60
2023-04-01T06:18:42.389Z,0.75
2023-04-01T06:22:01.112Z,1.10
2023-04-01T06:25:22.742Z,0.75
2023-04-01T06:29:04.835Z,1.27
2023-04-01T06:32:53.226Z,0.82
2023-04-01T06:36:34.511Z,0.60
2023-04-01T06:39:52.363Z,0.80
2023-04-01T06:42:57.732Z,0.70
2023-04-01T06:46:11.795Z,1.00
2023-04-01T06:49:46.247Z,1.10
2023-04-01T06:53:19.700Z,1.00
2023-04-01T06:56:30.958Z,1.10
2023-04-01T06:59:38.260Z,0.77
2023-04-01T07:02:56.722Z,0.90
2023-04-01T07:06:05.384Z,1.05
2023-04-01T07:09:16.886Z,1.00
2023-04-01T07:12:39.473Z,1.00
2023-04-01T07:15:56.756Z,1.00
2023-04-01T07:19:27.887Z,1.20
2023-04-01T07:22:39.213Z,1.12
2023-04-01T07:25:47.019Z,1.40
2023-04-01T07:28:53.514Z,0.90
2023-04-01T07:32:20.352Z,0.90
2023-04-01T07:35:39.300Z,1.15
2023-04-01T07:39:16.453Z,1.20
2023-04-01T07:42:40.367Z,1.00
2023-04-01T07:45:50.509Z,1.25
2023-04-01T07:49:05.356Z,1.48
2023-04-01T07:52:31.330Z,1.00
2023-04-01T07:56:13.016Z,0.83
2023-04-01T07:59:29.041Z,0.90
2023-04-01T08:02:42.511Z,0.93
2023-04-01T08:05:56.715Z,0.80
2023-04-01T08:09:41.859Z,1.00
2023-04-01T08:13:03.425Z,1.08
2023-04-01T08:16:16.414Z,1.20
2023-04-01T08:19:38.273Z,1.05
2023-04-01T08:22:50.425Z,0.95
2023-04-01T08:25:57.096Z,1.08
2023-04-01T08:29:06.210Z,1.17
2023-04-01T08:32:19.461Z,1.10
2023-04-01T08:35:30.401Z,0.90
2023-04-01T08:38:47.936Z,1.00
2023-04-01T08:42:17.342Z,1.20
2023-04-01T08:45:55.427Z,0.95
2023-04-01T08:49:04.447Z,0.95
2023-04-01T08:52:22.693Z,1.10
2023-04-01T08:55:34.694Z,0.73
2023-04-01T08:59:14.382Z,0.80
2023-04-01T09:02:36.824Z,1.00
2023-04-01T09:05:46.226Z,0.82
2023-04-01T09:09:07.415Z,1.00
2023-04-01T09:12:26.468Z,0.90
2023-04-01T09:15:54.475Z,1.00
2023-04-01T09:19:26.673Z,0.98
2023-04-01T09:22:52.663Z,1.02
2023-04-01T09:26:19.536Z,1.15
2023-04-01T09:30:16.667Z,1.50
2023-04-01T09:34:00.826Z,1.50
2023-04-01T09:37:20.151Z,1.30
2023-04-01T09:40:42.088Z,1.30
2023-04-01T09:44:05.683Z,1.05
2023-04-01T09:47:20.552Z,1.05
2023-04-01T09:50:32.665Z,1.35
2023-04-01T09:53:47.170Z,1.10
2023-04-01T09:57:12.163Z,0.98
2023-04-01T10:00:56.731Z,1.20
2023-04-01T10:04:37.947Z,1.30
2023-04-01T10:08:02.216Z,1.00
2023-04-01T10:11:33.039Z,0.90
2023-04-01T10:14:38.333Z,1.25
2023-04-01T10:17:59.291Z,1.20
2023-04-01T10:21:23.988Z,1.20
2023-04-01T10:25:04.280Z,1.30
2023-04-01T10:28:21.743Z,1.33
2023-04-01T10:32:21.958Z,1.10
2023-04-01T10:35:40.009Z,1.00
2023-04-01T10:39:04.448Z,1.33
2023-04-01T10:42:22.853Z,1.20
2023-04-01T10:45:59.512Z,1.10
2023-04-01T10:49:08.299Z,1.50
2023-04-01T10:52:39.366Z,1.42
2023-04-01T10:56:08.053Z,1.15
2023-04-01T10:59:35.274Z,1.20
2023-04-01T11:03:04.143Z,1.40
2023-04-01T11:06:31.028Z,1.17
2023-04-01T11:10:07.752Z,1.40
2023-04-01T11:16:36.389Z,1.02
2023-04-01T11:19:42.397Z,1.08
2023-04-01T11:22:54.591Z,0.98
2023-04-01T11:26:04.843Z,0.90
2023-04-01T11:29:25.645Z,0.98
2023-04-01T11:36:17.161Z,0.70
2023-04-01T11:40:04.601Z,1.20
2023-04-01T11:43:32.250Z,1.10
2023-04-01T11:47:01.488Z,0.90
2023-04-01T11:50:19.195Z,0.80
2023-04-01T11:54:00.894Z,0.98
2023-04-01T11:57:29.761Z,0.85
2023-04-01T12:00:57.098Z,0.90
2023-04-01T12:04:56.160Z,0.97
2023-04-01T12:08:10.642Z,0.75
2023-04-01T12:11:21.483Z,0.80
2023-04-01T12:14:39.282Z,1.00
2023-04-01T12:18:14.928Z,0.90
2023-04-01T12:21:38.577Z,1.90
2023-04-01T12:24:53.484Z,1.00
2023-04-01T12:28:47.328Z,1.17
2023-04-01T12:32:28.969Z,0.62
2023-04-01T12:35:40.717Z,0.85
2023-04-01T12:39:08.227Z,1.05
2023-04-01T12:42:35.331Z,1.12
2023-04-01T12:45:47.250Z,1.00
2023-04-01T12:49:04.886Z,1.00
2023-04-01T12:52:15.866Z,0.80
2023-04-01T12:55:41.329Z,0.93
2023-04-01T12:58:56.790Z,1.20
2023-04-01T13:02:13.388Z,1.00
2023-04-01T13:05:35.152Z,0.85
2023-04-01T13:08:37.976Z,0.77
2023-04-01T13:12:06.482Z,0.98
2023-04-01T13:15:09.095Z,1.12
2023-04-01T13:18:30.469Z,1.12
2023-04-01T13:21:43.833Z,0.80
2023-04-01T13:24:53.104Z,1.00
2023-04-01T13:28:40.925Z,1.05
2023-04-01T13:32:03.347Z,0.82
2023-04-01T13:35:23.295Z,0.82
2023-04-01T13:39:00.744Z,0.95
2023-04-01T13:42:17.670Z,0.70
2023-04-01T13:45:25.733Z,0.73
2023-04-01T13:48:54.633Z,1.10
2023-04-01T13:52:29.657Z,1.00
2023-04-01T13:55:39.071Z,0.88
2023-04-01T13:58:50.673Z,0.70
2023-04-01T14:02:19.965Z,0.90
2023-04-01T14:05:43.803Z,0.82
2023-04-01T14:08:52.801Z,0.90
2023-04-01T14:12:16.636Z,0.62
2023-04-01T14:15:25.110Z,0.60
2023-04-01T14:18:43.058Z,0.77
2023-04-01T14:21:56.502Z,0.60
2023-04-01T14:25:11.899Z,0.60
2023-04-01T14:28:20.760Z,0.57
2023-04-01T14:32:01.117Z,0.60
2023-04-01T14:35:34.276Z,0.85
2023-04-01T14:39:19.021Z,0.93
2023-04-01T14:42:48.818Z,0.60
2023-04-01T14:46:06.261Z,0.98
2023-04-01T14:49:34.142Z,0.80
2023-04-01T14:52:41.258Z,0.70
2023-04-01T14:55:43.689Z,0.90
2023-04-01T14:58:58.906Z,1.08
2023-04-01T15:02:27.673Z,0.77
2023-04-01T15:05:35.337Z,1.17
2023-04-01T15:09:09.795Z,0.90
2023-04-01T15:12:15.464Z,1.00
2023-04-01T15:15:37.490Z,1.10
2023-04-01T15:19:05.006Z,0.70
2023-04-01T15:22:25.924Z,0.85
2023-04-01T15:25:53.320Z,0.90
2023-04-01T15:29:25.156Z,0.85
2023-04-01T15:32:39.879Z,0.70
2023-04-01T15:36:04.207Z,0.88
2023-04-01T15:39:31.976Z,0.60
2023-04-01T15:42:49.371Z,0.50
2023-04-01T15:46:37.155Z,0.77
2023-04-01T15:49:48.657Z,0.90
2023-04-01T15:53:39.460Z,0.70
2023-04-01T15:56:59.890Z,0.80
2023-04-01T16:00:12.068Z,0.70
2023-04-01T16:03:29.559Z,0.43
2023-04-01T16:06:49.115Z,0.50
2023-04-01T16:10:26.750Z,0.57
2023-04-01T16:13:40.062Z,0.40
2023-04-01T16:17:07.367Z,0.40
2023-04-01T16:23:44.609Z,0.40
2023-04-01T16:27:13.476Z,0.50
2023-04-01T16:30:19.239Z,0.45
2023-04-01T16:33:56.375Z,0.60
2023-04-01T16:37:22.126Z,0.50
2023-04-01T16:40:41.808Z,0.60
2023-04-01T16:43:56.412Z,0.43
2023-04-01T16:47:16.386Z,0.47
2023-04-01T16:50:40.429Z,0.60
2023-04-01T16:53:49.058Z,0.70
2023-04-01T16:56:54.989Z,0.80
2023-04-01T17:00:04.735Z,1.00
2023-04-01T17:03:35.709Z,0.70
2023-04-01T17:07:15.782Z,1.12
2023-04-01T17:10:29.461Z,1.15
2023-04-01T17:13:38.476Z,1.08
2023-04-01T17:20:17.457Z,1.10
2023-04-01T17:23:41.280Z,0.90
2023-04-01T17:26:52.578Z,1.10
2023-04-01T17:30:04.190Z,0.77
2023-04-01T17:33:14.631Z,1.50
2023-04-01T17:36:41.806Z,0.80
2023-04-01T17:39:50.410Z,1.10
2023-04-01T17:43:02.054Z,1.17
2023-04-01T17:46:25.190Z,1.02
2023-04-01T17:49:46.324Z,1.00
2023-04-01T17:53:17.179Z,1.10
2023-04-01T17:56:31.859Z,0.90
2023-04-01T17:59:39.185Z,1.20
2023-04-01T18:03:06.814Z,0.98
2023-04-01T18:06:22.689Z,1.52
2023-04-01T18:09:33.971Z,1.23
2023-04-01T18:12:39.487Z,1.00
2023-04-01T18:15:52.221Z,1.73
2023-04-01T18:19:10.781Z,1.80
2023-04-01T18:25:41.926Z,1.60
2023-04-01T18:28:59.699Z,2.08
2023-04-01T18:32:24.272Z,1.23
2023-04-01T18:35:52.158Z,1.35
2023-04-01T18:39:33.054Z,1.77
2023-04-01T18:43:01.189Z,1.70
2023-04-01T18:46:30.464Z,1.50
2023-04-01T18:49:53.458Z,2.15
2023-04-01T18:53:11.071Z,1.25
2023-04-01T18:56:37.142Z,2.40
2023-04-01T18:59:43.083Z,1.95
2023-04-01T19:02:59.450Z,1.55
2023-04-01T19:06:16.821Z,1.25
2023-04-01T19:09:23.930Z,1.75
2023-04-01T19:13:14.338Z,1.47
2023-04-01T19:16:51.541Z,1.00
2023-04-01T19:20:17.618Z,1.65
2023-04-01T19:23:38.939Z,1.60
2023-04-01T19:26:49.364Z,1.10
2023-04-01T19:30:16.805Z,1.15
2023-04-01T19:33:38.320Z,1.50
2023-04-01T19:36:40.930Z,0.85
2023-04-01T19:39:54.118Z,1.35
2023-04-01T19:43:41.435Z,1.33
2023-04-01T19:46:50.443Z,1.27
2023-04-01T19:50:17.815Z,2.00
2023-04-01T19:53:51.596Z,1.62
2023-04-01T19:57:08.267Z,1.70
2023-04-01T20:00:38.871Z,1.87
2023-04-01T20:03:52.205Z,1.77
2023-04-01T20:07:16.939Z,1.73
2023-04-01T20:11:01.720Z,2.30
2023-04-01T20:14:16.773Z,2.87
2023-04-01T20:17:37.632Z,2.22
2023-04-01T20:20:42.183Z,2.67
2023-04-01T20:23:54.040Z,2.28
2023-04-01T20:27:11.349Z,2.30
2023-04-01T20:30:59.466Z,2.12
2023-04-01T20:34:08.203Z,2.47
2023-04-01T20:37:33.328Z,2.10
2023-04-01T20:40:50.103Z,2.65
2023-04-01T20:44:04.661Z,2.60
2023-04-01T20:47:47.913Z,2.60
2023-04-01T20:51:11.802Z,2.30
2023-04-01T20:54:32.450Z,2.50
2023-04-01T20:58:16.568Z,2.70
2023-04-01T21:01:51.690Z,2.47
2023-04-01T21:05:09.406Z,2.25
2023-04-01T21:08:18.016Z,2.13
2023-04-01T21:11:39.357Z,2.10
2023-04-01T21:15:04.265Z,1.87
2023-04-01T21:18:16.100Z,1.67
2023-04-01T21:21:56.182Z,2.17
2023-04-01T21:25:22.172Z,1.67
2023-04-01T21:28:36.358Z,1.70
2023-04-01T21:31:54.173Z,2.12
2023-04-01T21:35:05.668Z,2.07
2023-04-01T21:38:33.299Z,2.15
2023-04-01T21:41:54.853Z,1.67
2023-04-01T21:45:11.454Z,1.90
2023-04-01T21:48:23.683Z,1.58
2023-04-01T21:51:59.810Z,0.90
2023-04-01T21:55:37.774Z,1.10
2023-04-01T21:59:02.606Z,1.02
2023-04-01T22:02:32.613Z,0.90
2023-04-01T22:05:44.900Z,0.52
2023-04-01T22:09:24.812Z,0.88
2023-04-01T22:12:44.467Z,1.00
2023-04-01T22:16:01.915Z,0.75
2023-04-01T22:19:20.948Z,1.00
2023-04-01T22:22:30.916Z,0.88
2023-04-01T22:25:47.645Z,0.70
2023-04-01T22:29:17.835Z,1.00
2023-04-01T22:32:40.980Z,1.15
2023-04-01T22:36:20.954Z,0.70
2023-04-01T22:39:33.264Z,0.80
2023-04-01T22:43:07.566Z,1.02
2023-04-01T22:46:22.851Z,0.90
2023-04-01T22:49:50.954Z,0.80
2023-04-01T22:53:07.625Z,0.93
2023-04-01T22:56:20.572Z,0.90
2023-04-01T22:59:51.779Z,0.95
2023-04-01T23:03:14.712Z,1.12
2023-04-01T23:06:27.422Z,0.75
2023-04-01T23:09:34.341Z,0.93
2023-04-01T23:12:37.543Z,0.60
2023-04-01T23:15:41.447Z,0.90
2023-04-01T23:18:58.183Z,0.85
2023-04-01T23:22:12.618Z,0.93
2023-04-01T23:25:21.638Z,0.90
2023-04-01T23:28:41.995Z,0.75
2023-04-01T23:32:05.308Z,1.12
2023-04-01T23:35:17.939Z,0.90
2023-04-01T23:38:23.746Z,0.80
2023-04-01T23:41:30.804Z,0.98
2023-04-01T23:44:36.430Z,0.50
2023-04-01T23:47:41.327Z,0.80
2023-04-01T23:50:46.684Z,0.52
2023-04-01T23:53:58.564Z,0.80
2023-04-01T23:57:11.281Z,0.88
